sensor_id;sensor_type;location;lat;lon;timestamp;temperature;humidity
53286;DHT22;39171;45.550;12.074;2023-09-19T00:01:28;24.70;78.30
53286;DHT22;39171;45.550;12.074;2023-09-19T00:07:31;24.70;78.40
53286;DHT22;39171;45.550;12.074;2023-09-19T00:13:33;24.60;78.40
53286;DHT22;39171;45.550;12.074;2023-09-19T00:19:37;24.60;78.60
53286;DHT22;39171;45.550;12.074;2023-09-19T00:25:39;24.60;78.60
53286;DHT22;39171;45.550;12.074;2023-09-19T00:31:43;24.60;78.80
53286;DHT22;39171;45.550;12.074;2023-09-19T00:37:44;24.60;78.80
53286;DHT22;39171;45.550;12.074;2023-09-19T00:43:46;24.60;78.90
53286;DHT22;39171;45.550;12.074;2023-09-19T00:49:48;24.60;78.90
53286;DHT22;39171;45.550;12.074;2023-09-19T00:55:54;24.50;78.90
53286;DHT22;39171;45.550;12.074;2023-09-19T01:01:57;24.60;78.90
53286;DHT22;39171;45.550;12.074;2023-09-19T01:08:04;24.60;79.00
53286;DHT22;39171;45.550;12.074;2023-09-19T01:14:25;24.60;79.10
53286;DHT22;39171;45.550;12.074;2023-09-19T01:33:07;24.50;79.40
53286;DHT22;39171;45.550;12.074;2023-09-19T01:39:11;24.50;79.50
53286;DHT22;39171;45.550;12.074;2023-09-19T01:52:09;24.50;79.90
53286;DHT22;39171;45.550;12.074;2023-09-19T01:58:20;24.50;80.10
53286;DHT22;39171;45.550;12.074;2023-09-19T02:04:23;24.50;79.90
53286;DHT22;39171;45.550;12.074;2023-09-19T02:10:25;24.50;79.90
53286;DHT22;39171;45.550;12.074;2023-09-19T02:16:26;24.50;79.90
53286;DHT22;39171;45.550;12.074;2023-09-19T02:22:27;24.50;80.20
53286;DHT22;39171;45.550;12.074;2023-09-19T02:28:30;24.50;80.30
53286;DHT22;39171;45.550;12.074;2023-09-19T02:34:36;24.40;80.20
53286;DHT22;39171;45.550;12.074;2023-09-19T02:40:38;24.50;80.20
53286;DHT22;39171;45.550;12.074;2023-09-19T02:46:42;24.50;80.30
53286;DHT22;39171;45.550;12.074;2023-09-19T02:52:44;24.40;80.30
53286;DHT22;39171;45.550;12.074;2023-09-19T02:58:47;24.40;80.80
53286;DHT22;39171;45.550;12.074;2023-09-19T03:04:49;24.40;80.90
53286;DHT22;39171;45.550;12.074;2023-09-19T03:10:52;24.40;80.90
53286;DHT22;39171;45.550;12.074;2023-09-19T03:16:54;24.40;81.20
53286;DHT22;39171;45.550;12.074;2023-09-19T03:22:55;24.40;81.30
53286;DHT22;39171;45.550;12.074;2023-09-19T03:28:58;24.40;81.20
53286;DHT22;39171;45.550;12.074;2023-09-19T03:35:00;24.40;80.90
53286;DHT22;39171;45.550;12.074;2023-09-19T03:41:02;24.40;81.20
53286;DHT22;39171;45.550;12.074;2023-09-19T03:47:04;24.40;81.30
53286;DHT22;39171;45.550;12.074;2023-09-19T03:53:09;24.40;81.10
53286;DHT22;39171;45.550;12.074;2023-09-19T03:59:11;24.40;81.10
53286;DHT22;39171;45.550;12.074;2023-09-19T04:05:13;24.40;81.00
53286;DHT22;39171;45.550;12.074;2023-09-19T04:11:15;24.40;81.00
53286;DHT22;39171;45.550;12.074;2023-09-19T04:17:16;24.40;81.10
53286;DHT22;39171;45.550;12.074;2023-09-19T04:23:18;24.30;80.90
53286;DHT22;39171;45.550;12.074;2023-09-19T04:29:22;24.30;80.90
53286;DHT22;39171;45.550;12.074;2023-09-19T04:35:23;24.30;80.80
53286;DHT22;39171;45.550;12.074;2023-09-19T04:41:26;24.30;80.80
53286;DHT22;39171;45.550;12.074;2023-09-19T04:47:28;24.30;80.80
53286;DHT22;39171;45.550;12.074;2023-09-19T04:53:29;24.30;80.80
53286;DHT22;39171;45.550;12.074;2023-09-19T04:59:31;24.30;80.80
53286;DHT22;39171;45.550;12.074;2023-09-19T05:05:32;24.30;80.80
53286;DHT22;39171;45.550;12.074;2023-09-19T05:11:35;24.30;81.00
53286;DHT22;39171;45.550;12.074;2023-09-19T05:17:39;24.30;80.90
53286;DHT22;39171;45.550;12.074;2023-09-19T05:23:41;24.30;80.90
53286;DHT22;39171;45.550;12.074;2023-09-19T05:29:46;24.30;80.90
53286;DHT22;39171;45.550;12.074;2023-09-19T05:35:49;24.20;81.00
53286;DHT22;39171;45.550;12.074;2023-09-19T05:41:50;24.20;80.90
53286;DHT22;39171;45.550;12.074;2023-09-19T05:47:52;24.20;80.90
53286;DHT22;39171;45.550;12.074;2023-09-19T05:53:58;24.20;81.00
53286;DHT22;39171;45.550;12.074;2023-09-19T06:00:00;24.20;80.90
53286;DHT22;39171;45.550;12.074;2023-09-19T06:06:02;24.20;80.90
53286;DHT22;39171;45.550;12.074;2023-09-19T06:12:03;24.20;81.00
53286;DHT22;39171;45.550;12.074;2023-09-19T06:18:10;24.20;81.20
53286;DHT22;39171;45.550;12.074;2023-09-19T06:24:15;24.20;81.00
53286;DHT22;39171;45.550;12.074;2023-09-19T06:30:17;24.20;81.10
53286;DHT22;39171;45.550;12.074;2023-09-19T06:36:19;24.20;81.00
53286;DHT22;39171;45.550;12.074;2023-09-19T06:42:21;24.20;81.00
53286;DHT22;39171;45.550;12.074;2023-09-19T06:48:24;24.20;81.10
53286;DHT22;39171;45.550;12.074;2023-09-19T06:54:28;24.20;81.00
53286;DHT22;39171;45.550;12.074;2023-09-19T07:00:32;24.20;81.00
53286;DHT22;39171;45.550;12.074;2023-09-19T07:06:37;24.20;80.90
53286;DHT22;39171;45.550;12.074;2023-09-19T07:12:39;24.20;80.90
53286;DHT22;39171;45.550;12.074;2023-09-19T07:18:42;24.20;80.90
53286;DHT22;39171;45.550;12.074;2023-09-19T07:24:45;24.20;80.80
53286;DHT22;39171;45.550;12.074;2023-09-19T07:30:48;24.20;80.70
53286;DHT22;39171;45.550;12.074;2023-09-19T07:36:49;24.30;80.80
53286;DHT22;39171;45.550;12.074;2023-09-19T07:42:51;24.30;80.70
53286;DHT22;39171;45.550;12.074;2023-09-19T07:48:52;24.30;80.80
53286;DHT22;39171;45.550;12.074;2023-09-19T07:54:55;24.30;80.60
53286;DHT22;39171;45.550;12.074;2023-09-19T08:01:11;24.30;80.50
53286;DHT22;39171;45.550;12.074;2023-09-19T08:07:13;24.30;80.50
53286;DHT22;39171;45.550;12.074;2023-09-19T08:13:18;24.30;80.30
53286;DHT22;39171;45.550;12.074;2023-09-19T08:19:20;24.30;80.20
53286;DHT22;39171;45.550;12.074;2023-09-19T08:25:24;24.30;80.00
53286;DHT22;39171;45.550;12.074;2023-09-19T08:31:29;24.30;79.90
53286;DHT22;39171;45.550;12.074;2023-09-19T08:37:33;24.40;80.10
53286;DHT22;39171;45.550;12.074;2023-09-19T08:43:35;24.40;79.70
53286;DHT22;39171;45.550;12.074;2023-09-19T08:50:00;24.30;79.70
53286;DHT22;39171;45.550;12.074;2023-09-19T08:56:09;24.30;79.60
53286;DHT22;39171;45.550;12.074;2023-09-19T09:02:12;24.40;79.50
53286;DHT22;39171;45.550;12.074;2023-09-19T09:08:15;24.40;79.40
53286;DHT22;39171;45.550;12.074;2023-09-19T09:14:19;24.40;79.20
53286;DHT22;39171;45.550;12.074;2023-09-19T09:20:21;24.50;79.10
53286;DHT22;39171;45.550;12.074;2023-09-19T09:26:41;24.50;79.10
53286;DHT22;39171;45.550;12.074;2023-09-19T09:33:08;24.50;79.00
53286;DHT22;39171;45.550;12.074;2023-09-19T09:39:29;24.50;79.00
53286;DHT22;39171;45.550;12.074;2023-09-19T09:45:36;24.50;78.90
53286;DHT22;39171;45.550;12.074;2023-09-19T09:51:37;24.50;78.80
53286;DHT22;39171;45.550;12.074;2023-09-19T09:57:40;24.60;78.60
53286;DHT22;39171;45.550;12.074;2023-09-19T10:03:43;24.60;78.60
53286;DHT22;39171;45.550;12.074;2023-09-19T10:09:49;24.60;78.50
53286;DHT22;39171;45.550;12.074;2023-09-19T10:15:51;24.60;78.40
53286;DHT22;39171;45.550;12.074;2023-09-19T10:21:56;24.60;78.40
53286;DHT22;39171;45.550;12.074;2023-09-19T10:28:00;24.60;78.30
53286;DHT22;39171;45.550;12.074;2023-09-19T10:34:08;24.70;78.20
53286;DHT22;39171;45.550;12.074;2023-09-19T10:40:12;24.70;78.10
53286;DHT22;39171;45.550;12.074;2023-09-19T10:46:14;24.70;77.90
53286;DHT22;39171;45.550;12.074;2023-09-19T10:52:21;24.70;77.70
53286;DHT22;39171;45.550;12.074;2023-09-19T10:58:31;24.70;77.30
53286;DHT22;39171;45.550;12.074;2023-09-19T11:04:44;24.80;77.20
53286;DHT22;39171;45.550;12.074;2023-09-19T11:10:50;24.80;77.10
53286;DHT22;39171;45.550;12.074;2023-09-19T11:23:22;24.80;77.00
53286;DHT22;39171;45.550;12.074;2023-09-19T11:29:29;24.80;77.00
53286;DHT22;39171;45.550;12.074;2023-09-19T11:42:44;24.80;76.70
53286;DHT22;39171;45.550;12.074;2023-09-19T11:48:48;24.90;76.50
53286;DHT22;39171;45.550;12.074;2023-09-19T11:54:56;24.90;76.40
53286;DHT22;39171;45.550;12.074;2023-09-19T12:00:59;25.00;76.20
53286;DHT22;39171;45.550;12.074;2023-09-19T12:07:03;25.00;76.00
53286;DHT22;39171;45.550;12.074;2023-09-19T12:13:19;25.00;75.80
53286;DHT22;39171;45.550;12.074;2023-09-19T12:19:25;25.10;75.30
53286;DHT22;39171;45.550;12.074;2023-09-19T12:25:42;25.10;74.90
53286;DHT22;39171;45.550;12.074;2023-09-19T12:31:55;25.10;74.40
53286;DHT22;39171;45.550;12.074;2023-09-19T12:38:00;25.20;74.00
53286;DHT22;39171;45.550;12.074;2023-09-19T12:44:02;25.20;73.90
53286;DHT22;39171;45.550;12.074;2023-09-19T12:50:13;25.30;73.50
53286;DHT22;39171;45.550;12.074;2023-09-19T12:56:16;25.30;73.10
53286;DHT22;39171;45.550;12.074;2023-09-19T13:02:19;25.30;72.90
53286;DHT22;39171;45.550;12.074;2023-09-19T13:08:35;25.30;73.00
53286;DHT22;39171;45.550;12.074;2023-09-19T13:14:40;25.30;73.00
53286;DHT22;39171;45.550;12.074;2023-09-19T13:21:08;25.40;72.50
53286;DHT22;39171;45.550;12.074;2023-09-19T13:27:24;25.50;72.10
53286;DHT22;39171;45.550;12.074;2023-09-19T13:33:30;25.50;71.60
53286;DHT22;39171;45.550;12.074;2023-09-19T13:39:31;25.60;71.20
53286;DHT22;39171;45.550;12.074;2023-09-19T13:45:33;25.70;71.10
53286;DHT22;39171;45.550;12.074;2023-09-19T13:51:35;25.70;70.70
53286;DHT22;39171;45.550;12.074;2023-09-19T13:57:36;25.80;70.30
53286;DHT22;39171;45.550;12.074;2023-09-19T14:03:38;25.80;69.90
53286;DHT22;39171;45.550;12.074;2023-09-19T14:09:40;25.80;69.60
53286;DHT22;39171;45.550;12.074;2023-09-19T14:15:42;25.80;69.20
53286;DHT22;39171;45.550;12.074;2023-09-19T14:21:43;25.90;69.00
53286;DHT22;39171;45.550;12.074;2023-09-19T14:27:47;25.90;69.00
53286;DHT22;39171;45.550;12.074;2023-09-19T14:33:54;25.90;68.90
53286;DHT22;39171;45.550;12.074;2023-09-19T14:39:57;25.80;69.00
53286;DHT22;39171;45.550;12.074;2023-09-19T14:46:08;25.80;68.90
53286;DHT22;39171;45.550;12.074;2023-09-19T14:52:11;25.70;69.00
53286;DHT22;39171;45.550;12.074;2023-09-19T14:58:14;25.80;68.80
53286;DHT22;39171;45.550;12.074;2023-09-19T15:04:15;25.80;68.50
53286;DHT22;39171;45.550;12.074;2023-09-19T15:10:17;25.80;68.10
53286;DHT22;39171;45.550;12.074;2023-09-19T15:16:19;25.80;68.00
53286;DHT22;39171;45.550;12.074;2023-09-19T15:22:21;25.80;68.30
53286;DHT22;39171;45.550;12.074;2023-09-19T15:28:23;25.70;68.80
53286;DHT22;39171;45.550;12.074;2023-09-19T15:34:25;25.60;69.20
53286;DHT22;39171;45.550;12.074;2023-09-19T15:40:26;25.50;69.60
53286;DHT22;39171;45.550;12.074;2023-09-19T15:46:37;25.50;69.90
53286;DHT22;39171;45.550;12.074;2023-09-19T15:52:39;25.40;70.10
53286;DHT22;39171;45.550;12.074;2023-09-19T15:58:41;25.30;70.50
53286;DHT22;39171;45.550;12.074;2023-09-19T16:04:46;25.30;70.70
53286;DHT22;39171;45.550;12.074;2023-09-19T16:10:48;25.30;70.80
53286;DHT22;39171;45.550;12.074;2023-09-19T16:16:50;25.20;70.90
53286;DHT22;39171;45.550;12.074;2023-09-19T16:22:54;25.20;71.10
53286;DHT22;39171;45.550;12.074;2023-09-19T16:28:57;25.20;71.20
53286;DHT22;39171;45.550;12.074;2023-09-19T16:35:06;25.20;71.30
53286;DHT22;39171;45.550;12.074;2023-09-19T16:41:09;25.20;71.60
53286;DHT22;39171;45.550;12.074;2023-09-19T16:47:13;25.10;71.70
53286;DHT22;39171;45.550;12.074;2023-09-19T16:53:14;25.10;71.80
53286;DHT22;39171;45.550;12.074;2023-09-19T16:59:18;25.10;71.90
53286;DHT22;39171;45.550;12.074;2023-09-19T17:05:21;25.00;72.20
53286;DHT22;39171;45.550;12.074;2023-09-19T17:11:23;25.10;72.60
53286;DHT22;39171;45.550;12.074;2023-09-19T17:17:25;25.00;72.80
53286;DHT22;39171;45.550;12.074;2023-09-19T17:23:28;25.00;73.00
53286;DHT22;39171;45.550;12.074;2023-09-19T17:29:30;25.00;73.30
53286;DHT22;39171;45.550;12.074;2023-09-19T17:35:31;24.90;73.40
53286;DHT22;39171;45.550;12.074;2023-09-19T17:41:33;25.00;73.60
53286;DHT22;39171;45.550;12.074;2023-09-19T17:47:34;24.90;73.80
53286;DHT22;39171;45.550;12.074;2023-09-19T17:53:37;24.90;73.90
53286;DHT22;39171;45.550;12.074;2023-09-19T17:59:38;24.90;74.20
53286;DHT22;39171;45.550;12.074;2023-09-19T18:05:44;24.90;74.30
53286;DHT22;39171;45.550;12.074;2023-09-19T18:11:46;24.90;74.40
53286;DHT22;39171;45.550;12.074;2023-09-19T18:17:47;24.90;74.60
53286;DHT22;39171;45.550;12.074;2023-09-19T18:24:01;24.90;74.80
53286;DHT22;39171;45.550;12.074;2023-09-19T18:37:20;24.80;75.10
53286;DHT22;39171;45.550;12.074;2023-09-19T18:43:31;24.80;75.20
53286;DHT22;39171;45.550;12.074;2023-09-19T18:49:41;24.80;75.40
53286;DHT22;39171;45.550;12.074;2023-09-19T18:56:10;24.80;75.50
53286;DHT22;39171;45.550;12.074;2023-09-19T19:03:00;24.80;75.70
53286;DHT22;39171;45.550;12.074;2023-09-19T19:10:15;24.80;75.70
53286;DHT22;39171;45.550;12.074;2023-09-19T19:16:38;24.80;75.90
53286;DHT22;39171;45.550;12.074;2023-09-19T19:23:08;24.80;76.10
53286;DHT22;39171;45.550;12.074;2023-09-19T19:29:52;24.70;76.10
53286;DHT22;39171;45.550;12.074;2023-09-19T19:36:09;24.80;76.30
53286;DHT22;39171;45.550;12.074;2023-09-19T19:42:16;24.70;76.40
53286;DHT22;39171;45.550;12.074;2023-09-19T19:48:27;24.70;76.50
53286;DHT22;39171;45.550;12.074;2023-09-19T19:54:57;24.70;76.70
53286;DHT22;39171;45.550;12.074;2023-09-19T20:01:08;24.70;76.80
53286;DHT22;39171;45.550;12.074;2023-09-19T20:14:51;24.70;77.00
53286;DHT22;39171;45.550;12.074;2023-09-19T20:21:11;24.70;77.10
53286;DHT22;39171;45.550;12.074;2023-09-19T20:27:20;24.70;77.10
53286;DHT22;39171;45.550;12.074;2023-09-19T20:33:30;24.70;77.20
53286;DHT22;39171;45.550;12.074;2023-09-19T20:39:41;24.70;77.30
53286;DHT22;39171;45.550;12.074;2023-09-19T20:45:52;24.70;77.30
53286;DHT22;39171;45.550;12.074;2023-09-19T20:52:17;24.70;77.50
53286;DHT22;39171;45.550;12.074;2023-09-19T20:59:15;24.70;77.50
53286;DHT22;39171;45.550;12.074;2023-09-19T21:05:26;24.70;77.60
53286;DHT22;39171;45.550;12.074;2023-09-19T21:11:27;24.60;77.70
53286;DHT22;39171;45.550;12.074;2023-09-19T21:17:29;24.60;77.80
53286;DHT22;39171;45.550;12.074;2023-09-19T21:23:34;24.60;77.70
53286;DHT22;39171;45.550;12.074;2023-09-19T21:29:38;24.60;77.80
53286;DHT22;39171;45.550;12.074;2023-09-19T21:35:44;24.60;77.80
53286;DHT22;39171;45.550;12.074;2023-09-19T21:42:05;24.70;78.10
53286;DHT22;39171;45.550;12.074;2023-09-19T21:48:10;24.70;78.20
53286;DHT22;39171;45.550;12.074;2023-09-19T21:54:14;24.60;78.10
53286;DHT22;39171;45.550;12.074;2023-09-19T22:00:19;24.60;78.10
53286;DHT22;39171;45.550;12.074;2023-09-19T22:13:50;24.60;78.10
53286;DHT22;39171;45.550;12.074;2023-09-19T22:20:15;24.60;78.20
53286;DHT22;39171;45.550;12.074;2023-09-19T22:26:31;24.60;78.30
53286;DHT22;39171;45.550;12.074;2023-09-19T22:32:51;24.60;78.30
53286;DHT22;39171;45.550;12.074;2023-09-19T22:39:10;24.50;78.40
53286;DHT22;39171;45.550;12.074;2023-09-19T22:45:26;24.50;78.60
53286;DHT22;39171;45.550;12.074;2023-09-19T22:51:58;24.50;78.60
53286;DHT22;39171;45.550;12.074;2023-09-19T22:58:29;24.50;78.60
53286;DHT22;39171;45.550;12.074;2023-09-19T23:04:40;24.60;78.60
53286;DHT22;39171;45.550;12.074;2023-09-19T23:10:56;24.50;78.60
53286;DHT22;39171;45.550;12.074;2023-09-19T23:17:07;24.50;78.80
53286;DHT22;39171;45.550;12.074;2023-09-19T23:23:15;24.50;78.80
53286;DHT22;39171;45.550;12.074;2023-09-19T23:29:19;24.50;78.90
53286;DHT22;39171;45.550;12.074;2023-09-19T23:35:20;24.50;78.90
53286;DHT22;39171;45.550;12.074;2023-09-19T23:41:24;24.50;79.10
53286;DHT22;39171;45.550;12.074;2023-09-19T23:47:26;24.50;79.10
53286;DHT22;39171;45.550;12.074;2023-09-19T23:53:31;24.50;79.20
53286;DHT22;39171;45.550;12.074;2023-09-19T23:59:34;24.50;79.10
